createdAt,value
2022-09-04T00:01:55.715Z,19.25
2022-09-04T00:04:25.708Z,19.40
2022-09-04T00:07:20.612Z,19.42
2022-09-04T00:09:53.242Z,21.58
2022-09-04T00:12:29.194Z,21.52
2022-09-04T00:15:11.854Z,19.65
2022-09-04T00:17:38.622Z,15.73
2022-09-04T00:20:36.049Z,17.80
2022-09-04T00:23:14.509Z,18.85
2022-09-04T00:26:07.814Z,19.65
2022-09-04T00:28:37.540Z,22.00
2022-09-04T00:31:18.274Z,18.23
2022-09-04T00:34:01.194Z,18.67
2022-09-04T00:36:29.463Z,20.10
2022-09-04T00:39:00.536Z,21.17
2022-09-04T00:41:46.208Z,16.92
2022-09-04T00:44:50.795Z,21.50
2022-09-04T00:47:29.714Z,20.55
2022-09-04T00:50:01.061Z,21.40
2022-09-04T00:52:58.330Z,24.10
2022-09-04T00:55:50.743Z,20.85
2022-09-04T00:58:29.637Z,17.95
2022-09-04T01:00:59.270Z,20.15
2022-09-04T01:03:40.539Z,17.17
2022-09-04T01:06:16.011Z,25.25
2022-09-04T01:09:05.115Z,19.13
2022-09-04T01:12:23.000Z,18.30
2022-09-04T01:15:22.348Z,17.98
2022-09-04T01:18:10.285Z,16.52
2022-09-04T01:21:06.556Z,17.25
2022-09-04T01:23:48.408Z,17.50
2022-09-04T01:26:45.827Z,19.17
2022-09-04T01:29:39.977Z,16.42
2022-09-04T01:32:29.673Z,20.48
2022-09-04T01:35:08.966Z,19.02
2022-09-04T01:38:14.602Z,18.05
2022-09-04T01:40:58.413Z,17.63
2022-09-04T01:43:25.525Z,18.77
2022-09-04T01:46:07.072Z,17.25
2022-09-04T01:48:57.471Z,19.58
2022-09-04T01:51:37.982Z,13.52
2022-09-04T01:54:42.491Z,14.48
2022-09-04T01:57:35.656Z,14.65
2022-09-04T02:00:10.891Z,14.85
2022-09-04T02:02:47.641Z,15.38
2022-09-04T02:05:44.475Z,18.70
2022-09-04T02:08:23.968Z,14.48
2022-09-04T02:10:56.702Z,14.05
2022-09-04T02:13:44.090Z,13.63
2022-09-04T02:16:33.748Z,12.07
2022-09-04T02:19:14.066Z,16.00
2022-09-04T02:21:49.407Z,14.23
2022-09-04T02:24:19.224Z,15.93
2022-09-04T02:26:49.431Z,18.83
2022-09-04T02:29:43.938Z,15.68
2022-09-04T02:32:32.414Z,16.65
2022-09-04T02:35:07.924Z,18.90
2022-09-04T02:38:01.464Z,18.70
2022-09-04T02:40:43.256Z,19.42
2022-09-04T02:43:21.793Z,12.73
2022-09-04T02:46:07.944Z,15.95
2022-09-04T02:48:52.161Z,15.85
2022-09-04T02:51:45.613Z,17.48
2022-09-04T02:54:44.574Z,14.43
2022-09-04T02:57:39.489Z,13.50
2022-09-04T03:00:26.042Z,15.13
2022-09-04T03:03:02.995Z,15.02
2022-09-04T03:05:34.947Z,14.77
2022-09-04T03:08:30.336Z,16.98
2022-09-04T03:11:15.648Z,16.98
2022-09-04T03:13:51.924Z,15.93
2022-09-04T03:16:40.305Z,15.82
2022-09-04T03:19:12.740Z,15.70
2022-09-04T03:22:11.192Z,18.13
2022-09-04T03:25:25.746Z,14.15
2022-09-04T03:27:52.614Z,17.33
2022-09-04T03:30:19.567Z,17.60
2022-09-04T03:32:49.174Z,16.70
2022-09-04T03:35:23.549Z,17.63
2022-09-04T03:38:26.514Z,17.15
2022-09-04T03:41:04.477Z,17.38
2022-09-04T03:43:49.294Z,17.27
2022-09-04T03:46:44.179Z,20.05
2022-09-04T03:49:34.262Z,19.98
2022-09-04T03:52:18.201Z,12.40
2022-09-04T03:55:16.027Z,16.73
2022-09-04T03:57:55.280Z,15.15
2022-09-04T04:00:22.831Z,15.73
2022-09-04T04:03:01.779Z,16.35
2022-09-04T04:05:53.106Z,13.52
2022-09-04T04:08:29.008Z,12.07
2022-09-04T04:11:29.531Z,17.50
2022-09-04T04:14:23.499Z,11.50
2022-09-04T04:17:08.211Z,12.30
2022-09-04T04:19:42.502Z,15.50
2022-09-04T04:22:27.594Z,14.00
2022-09-04T04:25:02.649Z,12.27
2022-09-04T04:27:53.017Z,13.77
2022-09-04T04:30:21.216Z,13.27
2022-09-04T04:32:54.079Z,9.15
2022-09-04T04:35:29.828Z,9.73
2022-09-04T04:38:12.711Z,11.82
2022-09-04T04:41:04.051Z,9.45
2022-09-04T04:43:39.940Z,8.60
2022-09-04T04:46:25.025Z,9.02
2022-09-04T04:49:07.417Z,14.98
2022-09-04T04:52:01.978Z,9.40
2022-09-04T04:54:46.410Z,12.05
2022-09-04T04:57:31.318Z,9.35
2022-09-04T05:00:29.969Z,8.37
2022-09-04T05:03:23.390Z,11.85
2022-09-04T05:06:38.259Z,7.35
2022-09-04T05:09:40.050Z,8.10
2022-09-04T05:12:43.670Z,8.63
2022-09-04T05:16:07.935Z,10.30
2022-09-04T05:18:52.332Z,9.32
2022-09-04T05:21:34.061Z,12.30
2022-09-04T05:24:13.279Z,7.85
2022-09-04T05:27:03.566Z,9.10
2022-09-04T05:29:51.626Z,12.10
2022-09-04T05:32:25.246Z,8.25
2022-09-04T05:35:16.221Z,10.07
2022-09-04T05:38:07.938Z,10.02
2022-09-04T05:40:52.644Z,7.28
2022-09-04T05:43:19.477Z,9.75
2022-09-04T05:46:01.608Z,14.40
2022-09-04T05:48:42.534Z,11.00
2022-09-04T05:51:18.548Z,7.82
2022-09-04T05:54:03.223Z,11.13
2022-09-04T05:56:57.872Z,9.05
2022-09-04T05:59:33.546Z,12.90
2022-09-04T06:02:17.758Z,7.13
2022-09-04T06:05:03.549Z,7.10
2022-09-04T06:07:42.331Z,12.63
2022-09-04T06:10:29.705Z,8.18
2022-09-04T06:13:23.516Z,10.35
2022-09-04T06:16:08.567Z,8.55
2022-09-04T06:19:07.284Z,6.13
2022-09-04T06:22:04.638Z,6.75
2022-09-04T06:24:59.293Z,5.22
2022-09-04T06:27:38.337Z,4.90
2022-09-04T06:30:11.818Z,3.33
2022-09-04T06:33:03.604Z,5.57
2022-09-04T06:35:52.860Z,5.65
2022-09-04T06:38:46.048Z,2.95
2022-09-04T06:41:52.545Z,10.20
2022-09-04T06:44:37.284Z,3.78
2022-09-04T06:47:28.704Z,4.80
2022-09-04T06:50:06.055Z,3.80
2022-09-04T06:52:38.903Z,3.70
2022-09-04T06:55:20.566Z,5.97
2022-09-04T06:57:50.301Z,2.70
2022-09-04T07:00:20.277Z,5.15
2022-09-04T07:02:57.806Z,2.95
2022-09-04T07:05:52.214Z,3.70
2022-09-04T07:08:37.801Z,4.70
2022-09-04T07:11:23.358Z,10.32
2022-09-04T07:14:29.627Z,4.25
2022-09-04T07:17:17.488Z,2.65
2022-09-04T07:20:03.162Z,3.90
2022-09-04T07:22:58.326Z,4.97
2022-09-04T07:25:37.256Z,2.85
2022-09-04T07:28:39.289Z,5.72
2022-09-04T07:31:14.364Z,7.55
2022-09-04T07:33:58.019Z,3.40
2022-09-04T07:36:38.418Z,7.45
2022-09-04T07:39:19.406Z,5.35
2022-09-04T07:41:53.790Z,4.00
2022-09-04T07:44:41.472Z,5.13
2022-09-04T07:47:38.483Z,3.85
2022-09-04T07:50:24.898Z,5.70
2022-09-04T07:53:14.762Z,4.35
2022-09-04T07:55:47.362Z,3.50
2022-09-04T07:58:20.391Z,4.25
2022-09-04T08:00:56.304Z,3.60
2022-09-04T08:03:54.543Z,5.45
2022-09-04T08:06:31.171Z,4.00
2022-09-04T08:09:22.747Z,2.25
2022-09-04T08:12:31.337Z,2.63
2022-09-04T08:15:06.794Z,5.05
2022-09-04T08:20:19.168Z,3.95
2022-09-04T08:23:24.549Z,2.05
2022-09-04T08:26:20.459Z,2.38
2022-09-04T08:29:16.185Z,2.20
2022-09-04T08:31:48.670Z,2.03
2022-09-04T08:34:51.646Z,2.80
2022-09-04T08:37:56.164Z,4.38
2022-09-04T08:40:57.759Z,3.28
2022-09-04T08:43:48.933Z,11.20
2022-09-04T08:46:48.322Z,3.45
2022-09-04T08:49:37.490Z,3.70
2022-09-04T08:52:30.630Z,1.75
2022-09-04T08:55:12.560Z,6.38
2022-09-04T08:57:49.438Z,4.50
2022-09-04T09:00:16.436Z,4.28
2022-09-04T09:03:04.959Z,1.77
2022-09-04T09:05:53.739Z,2.00
2022-09-04T09:08:47.919Z,3.90
2022-09-04T09:11:23.847Z,2.05
2022-09-04T09:14:13.731Z,2.47
2022-09-04T09:17:34.624Z,4.80
2022-09-04T09:20:32.046Z,4.93
2022-09-04T09:23:24.225Z,2.25
2022-09-04T09:26:23.632Z,1.70
2022-09-04T09:29:17.735Z,3.83
2022-09-04T09:32:16.543Z,2.95
2022-09-04T09:35:08.857Z,4.05
2022-09-04T09:37:38.764Z,3.83
2022-09-04T09:40:46.933Z,2.60
2022-09-04T09:43:19.672Z,5.13
2022-09-04T09:46:23.815Z,2.85
2022-09-04T09:49:30.979Z,1.35
2022-09-04T09:52:27.736Z,1.55
2022-09-04T09:57:52.859Z,2.13
2022-09-04T10:00:25.813Z,2.35
2022-09-04T10:03:30.243Z,2.67
2022-09-04T10:06:18.771Z,1.35
2022-09-04T10:08:48.372Z,1.25
2022-09-04T10:11:44.226Z,1.70
2022-09-04T10:14:32.784Z,5.75
2022-09-04T10:17:08.807Z,2.65
2022-09-04T10:20:05.684Z,1.85
2022-09-04T10:22:45.120Z,3.05
2022-09-04T10:25:39.688Z,1.85
2022-09-04T10:28:35.354Z,1.25
2022-09-04T10:31:17.344Z,1.70
2022-09-04T10:34:19.222Z,3.67
2022-09-04T10:37:07.144Z,1.67
2022-09-04T10:40:29.744Z,1.98
2022-09-04T10:43:11.463Z,2.30
2022-09-04T10:46:06.190Z,1.98
2022-09-04T10:48:54.098Z,1.42
2022-09-04T10:51:45.733Z,1.13
2022-09-04T10:54:21.521Z,2.05
2022-09-04T10:57:18.414Z,2.55
2022-09-04T10:59:54.654Z,2.92
2022-09-04T11:02:54.472Z,2.05
2022-09-04T11:05:33.264Z,2.22
2022-09-04T11:08:21.225Z,3.45
2022-09-04T11:11:03.108Z,3.63
2022-09-04T11:13:56.695Z,3.45
2022-09-04T11:16:45.326Z,3.83
2022-09-04T11:19:21.055Z,1.98
2022-09-04T11:22:00.086Z,1.90
2022-09-04T11:25:08.668Z,1.65
2022-09-04T11:28:20.462Z,1.67
2022-09-04T11:31:04.904Z,3.97
2022-09-04T11:34:08.956Z,1.38
2022-09-04T11:37:08.119Z,1.80
2022-09-04T11:39:56.232Z,2.67
2022-09-04T11:42:47.149Z,2.40
2022-09-04T11:45:49.473Z,4.00
2022-09-04T11:48:28.457Z,4.43
2022-09-04T11:51:00.447Z,1.33
2022-09-04T11:53:36.190Z,1.77
2022-09-04T11:56:08.652Z,2.97
2022-09-04T11:58:55.681Z,2.70
2022-09-04T12:01:31.812Z,3.60
2022-09-04T12:04:26.132Z,2.35
2022-09-04T12:07:17.023Z,2.78
2022-09-04T12:10:09.126Z,1.73
2022-09-04T12:12:53.379Z,2.20
2022-09-04T12:16:00.670Z,2.03
2022-09-04T12:19:16.190Z,1.67
2022-09-04T12:22:00.381Z,4.05
2022-09-04T12:24:39.295Z,1.10
2022-09-04T12:27:27.035Z,4.22
2022-09-04T12:29:59.917Z,2.75
2022-09-04T12:33:08.406Z,7.18
2022-09-04T12:36:00.769Z,1.90
2022-09-04T12:38:50.934Z,2.38
2022-09-04T12:41:41.884Z,1.35
2022-09-04T12:44:39.407Z,5.75
2022-09-04T12:47:14.108Z,1.90
2022-09-04T12:49:58.203Z,1.98
2022-09-04T12:52:51.225Z,1.55
2022-09-04T12:55:24.390Z,4.97
2022-09-04T12:58:12.247Z,1.23
2022-09-04T13:01:08.546Z,2.30
2022-09-04T13:06:04.424Z,0.98
2022-09-04T13:08:59.547Z,1.05
2022-09-04T13:11:35.305Z,1.23
2022-09-04T13:14:29.258Z,2.88
2022-09-04T13:16:56.016Z,2.65
2022-09-04T13:19:46.041Z,6.30
2022-09-04T13:22:53.273Z,3.60
2022-09-04T13:25:39.640Z,2.25
2022-09-04T13:28:17.262Z,2.20
2022-09-04T13:31:00.112Z,1.50
2022-09-04T13:34:13.408Z,1.50
2022-09-04T13:37:21.219Z,16.20
2022-09-04T13:40:14.096Z,4.38
2022-09-04T13:42:56.959Z,2.17
2022-09-04T13:45:28.312Z,4.82
2022-09-04T13:48:09.743Z,0.80
2022-09-04T13:50:52.281Z,2.10
2022-09-04T13:53:25.187Z,5.55
2022-09-04T13:56:26.407Z,2.10
2022-09-04T13:59:01.718Z,1.85
2022-09-04T14:01:31.043Z,3.88
2022-09-04T14:04:01.468Z,2.42
2022-09-04T14:06:31.527Z,3.67
2022-09-04T14:09:05.610Z,2.20
2022-09-04T14:12:02.028Z,1.88
2022-09-04T14:14:48.599Z,2.97
2022-09-04T14:17:27.084Z,2.83
2022-09-04T14:20:30.075Z,4.13
2022-09-04T14:23:15.584Z,2.50
2022-09-04T14:25:51.131Z,6.80
2022-09-04T14:31:03.091Z,1.17
2022-09-04T14:34:13.727Z,2.40
2022-09-04T14:36:56.609Z,1.75
2022-09-04T14:39:57.813Z,5.95
2022-09-04T14:42:28.533Z,2.75
2022-09-04T14:45:09.821Z,2.03
2022-09-04T14:48:05.857Z,2.72
2022-09-04T14:50:45.223Z,2.85
2022-09-04T14:53:31.866Z,2.60
2022-09-04T14:56:24.866Z,1.10
2022-09-04T14:59:07.155Z,2.78
2022-09-04T15:01:45.750Z,2.60
2022-09-04T15:04:21.737Z,7.20
2022-09-04T15:07:12.205Z,2.75
2022-09-04T15:09:45.902Z,2.15
2022-09-04T15:12:26.250Z,5.45
2022-09-04T15:15:19.940Z,4.25
2022-09-04T15:17:56.556Z,3.33
2022-09-04T15:20:27.881Z,3.47
2022-09-04T15:22:57.630Z,3.15
2022-09-04T15:25:58.846Z,2.35
2022-09-04T15:28:38.409Z,1.27
2022-09-04T15:31:17.065Z,4.15
2022-09-04T15:33:47.665Z,1.65
2022-09-04T15:36:23.115Z,2.22
2022-09-04T15:38:56.239Z,1.52
2022-09-04T15:41:43.185Z,1.15
2022-09-04T15:44:23.926Z,2.78
2022-09-04T15:47:02.370Z,2.33
2022-09-04T15:52:31.771Z,4.07
2022-09-04T15:55:22.687Z,1.08
2022-09-04T15:58:19.822Z,3.78
2022-09-04T16:01:16.689Z,4.05
2022-09-04T16:03:53.144Z,4.93
2022-09-04T16:06:49.618Z,5.47
2022-09-04T16:12:18.730Z,2.13
2022-09-04T16:14:48.493Z,2.38
2022-09-04T16:17:28.901Z,3.45
2022-09-04T16:20:22.904Z,4.10
2022-09-04T16:22:58.532Z,6.22
2022-09-04T16:28:06.033Z,2.78
2022-09-04T16:30:36.158Z,5.18
2022-09-04T16:33:12.947Z,4.15
2022-09-04T16:35:49.770Z,2.60
2022-09-04T16:38:29.744Z,3.67
2022-09-04T16:41:15.626Z,10.60
2022-09-04T16:44:14.531Z,7.28
2022-09-04T16:47:02.755Z,3.92
2022-09-04T16:49:41.183Z,4.13
2022-09-04T16:52:28.218Z,5.18
2022-09-04T16:55:27.096Z,3.83
2022-09-04T16:58:07.172Z,4.85
2022-09-04T17:00:49.624Z,4.55
2022-09-04T17:03:24.727Z,7.10
2022-09-04T17:06:06.140Z,5.28
2022-09-04T17:08:50.067Z,4.15
2022-09-04T17:11:41.250Z,4.78
2022-09-04T17:14:43.182Z,9.23
2022-09-04T17:17:30.831Z,6.88
2022-09-04T17:20:06.875Z,4.20
2022-09-04T17:28:58.403Z,3.20
2022-09-04T17:29:08.056Z,3.33
2022-09-04T17:29:34.463Z,4.25
2022-09-04T17:32:35.489Z,6.70
2022-09-04T17:40:43.589Z,5.00
2022-09-04T17:40:46.389Z,2.80
2022-09-04T17:41:55.812Z,3.42
2022-09-04T17:44:50.610Z,5.95
2022-09-04T17:47:34.479Z,3.92
2022-09-04T17:50:02.350Z,3.17
2022-09-04T17:52:34.104Z,3.95
2022-09-04T17:55:11.439Z,5.15
2022-09-04T17:58:04.790Z,3.25
2022-09-04T18:00:49.454Z,3.72
2022-09-04T18:03:29.741Z,3.08
2022-09-04T18:06:21.771Z,7.13
2022-09-04T18:09:03.275Z,3.70
2022-09-04T18:11:37.146Z,3.63
2022-09-04T18:14:17.318Z,6.47
2022-09-04T18:16:54.506Z,9.63
2022-09-04T18:19:56.389Z,3.25
2022-09-04T18:22:42.457Z,4.20
2022-09-04T18:27:51.080Z,3.08
2022-09-04T18:37:12.777Z,3.28
2022-09-04T18:37:18.210Z,3.30
2022-09-04T18:37:27.098Z,3.88
2022-09-04T18:40:00.559Z,4.93
2022-09-04T18:50:25.101Z,4.82
2022-09-04T18:50:37.435Z,3.63
2022-09-04T18:50:48.952Z,5.50
2022-09-04T18:51:38.366Z,3.40
2022-09-04T18:54:20.274Z,7.70
2022-09-04T18:56:53.708Z,5.07
2022-09-04T19:00:08.116Z,4.75
2022-09-04T19:03:04.146Z,3.58
2022-09-04T19:05:44.401Z,3.72
2022-09-04T19:08:18.414Z,4.43
2022-09-04T19:10:55.069Z,5.82
2022-09-04T19:13:36.201Z,3.53
2022-09-04T19:16:13.907Z,7.55
2022-09-04T19:18:55.814Z,6.20
2022-09-04T19:21:39.877Z,5.85
2022-09-04T19:24:16.054Z,6.20
2022-09-04T19:27:27.874Z,7.03
2022-09-04T19:30:19.983Z,3.45
2022-09-04T19:32:59.786Z,3.55
2022-09-04T19:43:36.461Z,3.88
2022-09-04T19:45:59.347Z,6.78
2022-09-04T19:46:14.571Z,5.75
2022-09-04T19:47:37.549Z,3.35
2022-09-04T19:53:21.884Z,8.50
2022-09-04T19:53:31.104Z,3.92
2022-09-04T19:56:09.060Z,3.55
2022-09-04T19:59:11.580Z,5.70
2022-09-04T20:01:48.432Z,3.35
2022-09-04T20:04:30.695Z,5.90
2022-09-04T20:07:10.200Z,4.75
2022-09-04T20:09:50.606Z,6.53
2022-09-04T20:12:23.210Z,5.40
2022-09-04T20:15:25.978Z,6.10
2022-09-04T20:18:24.553Z,4.28
2022-09-04T20:20:58.686Z,3.33
2022-09-04T20:23:35.319Z,4.32
2022-09-04T20:26:17.957Z,3.90
2022-09-04T20:28:53.873Z,5.03
2022-09-04T20:31:36.137Z,4.38
2022-09-04T20:34:27.730Z,7.78
2022-09-04T20:37:15.970Z,7.68
2022-09-04T20:39:53.904Z,5.20
2022-09-04T20:42:58.942Z,9.05
2022-09-04T20:47:05.112Z,6.50
2022-09-04T20:52:55.886Z,6.10
2022-09-04T20:52:57.773Z,5.20
2022-09-04T20:54:11.462Z,5.75
2022-09-04T21:00:36.611Z,5.00
2022-09-04T21:03:08.102Z,10.25
2022-09-04T21:03:27.867Z,6.65
2022-09-04T21:06:31.924Z,7.32
2022-09-04T21:09:01.547Z,7.68
2022-09-04T21:11:41.169Z,6.28
2022-09-04T21:14:37.888Z,8.90
2022-09-04T21:17:34.590Z,6.85
2022-09-04T21:20:29.743Z,7.68
2022-09-04T21:23:18.639Z,8.77
2022-09-04T21:26:06.758Z,9.90
2022-09-04T21:28:56.802Z,6.43
2022-09-04T21:32:28.712Z,5.53
2022-09-04T21:37:39.881Z,6.93
2022-09-04T21:40:52.552Z,8.50
2022-09-04T21:43:36.016Z,5.28
2022-09-04T21:46:21.943Z,7.22
2022-09-04T21:48:52.350Z,10.85
2022-09-04T21:51:45.165Z,5.78
2022-09-04T21:55:29.841Z,7.65
2022-09-04T22:02:28.499Z,4.40
2022-09-04T22:02:44.249Z,4.90
2022-09-04T22:03:29.699Z,8.18
2022-09-04T22:06:14.113Z,5.90
2022-09-04T22:13:28.621Z,6.03
2022-09-04T22:13:46.326Z,6.63
2022-09-04T22:14:59.104Z,6.10
2022-09-04T22:17:34.487Z,5.03
2022-09-04T22:20:19.713Z,5.68
2022-09-04T22:22:46.479Z,6.28
2022-09-04T22:25:30.221Z,6.00
2022-09-04T22:28:12.446Z,8.65
2022-09-04T22:30:45.380Z,6.07
2022-09-04T22:33:27.580Z,7.07
2022-09-04T22:36:25.195Z,8.77
2022-09-04T22:39:00.819Z,5.82
2022-09-04T22:41:45.765Z,7.40
2022-09-04T22:44:21.407Z,10.82
2022-09-04T22:47:25.700Z,9.25
2022-09-04T22:50:49.031Z,6.82
2022-09-04T22:53:45.393Z,9.55
2022-09-04T22:56:27.831Z,7.95
2022-09-04T22:59:25.755Z,7.53
2022-09-04T23:02:13.676Z,7.30
2022-09-04T23:05:01.884Z,9.02
2022-09-04T23:13:41.886Z,6.50
2022-09-04T23:13:52.401Z,5.22
2022-09-04T23:14:06.766Z,7.68
2022-09-04T23:16:52.199Z,6.35
2022-09-04T23:26:36.127Z,8.07
2022-09-04T23:26:41.495Z,6.30
2022-09-04T23:26:53.127Z,5.40
2022-09-04T23:28:32.374Z,4.85
2022-09-04T23:31:07.084Z,4.97
2022-09-04T23:34:09.306Z,5.55
2022-09-04T23:36:44.928Z,9.77
2022-09-04T23:39:16.854Z,7.47
2022-09-04T23:42:21.694Z,5.88
2022-09-04T23:45:04.152Z,5.47
2022-09-04T23:47:49.513Z,6.40
2022-09-04T23:50:58.559Z,5.60
2022-09-04T23:53:36.040Z,5.18
2022-09-04T23:56:17.871Z,5.47
2022-09-04T23:59:28.082Z,6.95
